Time,TemperatureF,DewpointF,PressureIn,WindDirection,WindDirectionDegrees,WindSpeedMPH,WindSpeedGustMPH,Humidity,HourlyPrecipIn,Conditions,Clouds,dailyrainin,SoftwareType,DateUTC
2013-02-26 00:00:00,32.8,25.7,30.25,SE,135,0.0,1.1,75,0.00,,,0.00,WUHU216HW,2013-02-26 05:00:00,
2013-02-26 00:08:00,32.4,25.4,30.25,SE,135,0.0,0.0,75,0.08,,,0.08,WUHU216HW,2013-02-26 05:08:00,
2013-02-26 00:10:00,32.2,25.2,30.25,SE,135,0.0,0.0,75,2.59,,,0.08,WUHU216HW,2013-02-26 05:10:00,
2013-02-26 00:18:00,31.9,24.8,30.24,SE,135,0.0,0.0,75,0.08,,,0.08,WUHU216HW,2013-02-26 05:18:00,
2013-02-26 00:28:00,31.3,24.7,30.23,SE,135,0.0,0.0,76,0.08,,,0.08,WUHU216HW,2013-02-26 05:28:00,
2013-02-26 00:38:00,31.0,24.3,30.24,SE,135,0.0,0.0,76,0.08,,,0.08,WUHU216HW,2013-02-26 05:38:00,
2013-02-26 00:48:00,30.6,24.0,30.24,SE,135,0.0,0.0,76,0.08,,,0.08,WUHU216HW,2013-02-26 05:48:00,
2013-02-26 00:58:00,30.2,23.9,30.25,SE,135,0.0,0.0,77,0.08,,,0.08,WUHU216HW,2013-02-26 05:58:00,
2013-02-26 01:08:00,29.9,23.9,30.27,SSW,203,0.0,0.0,78,0.07,,,0.15,WUHU216HW,2013-02-26 06:08:00,
2013-02-26 01:18:00,29.7,23.3,30.27,SSW,203,0.0,0.0,77,0.07,,,0.15,WUHU216HW,2013-02-26 06:18:00,
2013-02-26 01:29:00,29.5,23.1,30.29,SSW,203,0.0,0.0,77,0.07,,,0.15,WUHU216HW,2013-02-26 06:29:00,
2013-02-26 01:39:00,29.5,23.5,30.29,SSW,203,0.0,0.4,78,0.07,,,0.15,WUHU216HW,2013-02-26 06:39:00,
2013-02-26 01:49:00,29.5,23.5,30.28,South,180,0.4,0.4,78,0.07,,,0.15,WUHU216HW,2013-02-26 06:49:00,
2013-02-26 01:59:00,29.7,23.9,30.27,South,180,0.0,0.4,79,0.07,,,0.15,WUHU216HW,2013-02-26 06:59:00,
2013-02-26 02:09:00,29.5,23.8,30.27,SSE,158,0.4,0.4,79,0.07,,,0.22,WUHU216HW,2013-02-26 07:09:00,
2013-02-26 02:19:00,29.5,23.8,30.27,SSE,158,0.0,0.7,79,0.07,,,0.22,WUHU216HW,2013-02-26 07:19:00,
2013-02-26 02:29:00,29.3,23.7,30.27,SSE,158,0.0,0.2,79,0.07,,,0.22,WUHU216HW,2013-02-26 07:29:00,
2013-02-26 02:39:00,29.2,23.5,30.28,SE,135,0.0,0.2,79,0.07,,,0.22,WUHU216HW,2013-02-26 07:39:00,
2013-02-26 02:49:00,29.0,23.3,30.27,SE,135,0.0,0.0,79,0.07,,,0.22,WUHU216HW,2013-02-26 07:49:00,
2013-02-26 02:59:00,28.8,23.4,30.27,SE,135,0.0,0.0,80,0.07,,,0.22,WUHU216HW,2013-02-26 07:59:00,
2013-02-26 03:09:00,28.6,23.2,30.27,NE,45,0.0,0.0,80,0.07,,,0.29,WUHU216HW,2013-02-26 08:09:00,
2013-02-26 03:19:00,28.4,23.3,30.27,North,0,0.0,0.7,81,0.07,,,0.29,WUHU216HW,2013-02-26 08:19:00,
2013-02-26 03:30:00,28.4,23.3,30.27,East,90,0.0,0.0,81,0.07,,,0.29,WUHU216HW,2013-02-26 08:30:00,
2013-02-26 03:40:00,28.3,23.1,30.27,East,90,0.0,0.0,81,0.07,,,0.29,WUHU216HW,2013-02-26 08:40:00,
2013-02-26 03:50:00,28.1,23.0,30.27,ESE,113,0.2,0.4,81,0.07,,,0.29,WUHU216HW,2013-02-26 08:50:00,
2013-02-26 04:00:00,28.1,23.0,30.27,ESE,113,0.0,0.2,81,0.07,,,0.29,WUHU216HW,2013-02-26 09:00:00,
2013-02-26 04:10:00,28.1,23.2,30.27,ESE,113,0.0,0.0,82,0.07,,,0.36,WUHU216HW,2013-02-26 09:10:00,
2013-02-26 04:20:00,27.9,23.0,30.27,ESE,113,0.0,0.0,82,0.07,,,0.36,WUHU216HW,2013-02-26 09:20:00,
2013-02-26 04:30:00,27.9,23.0,30.27,ESE,113,0.0,0.4,82,0.07,,,0.36,WUHU216HW,2013-02-26 09:30:00,
2013-02-26 04:40:00,27.7,22.9,30.27,ESE,113,0.0,0.2,82,2.59,,,0.36,WUHU216HW,2013-02-26 09:40:00,
2013-02-26 04:50:00,27.7,22.9,30.27,NE,45,0.0,0.4,82,2.59,,,0.36,WUHU216HW,2013-02-26 09:50:00,
2013-02-26 05:00:00,27.7,23.2,30.27,NE,45,0.0,0.4,83,2.59,,,0.48,WUHU216HW,2013-02-26 10:00:00,
2013-02-26 05:10:00,27.7,23.2,30.26,SE,135,0.4,0.4,83,2.59,,,0.49,WUHU216HW,2013-02-26 10:10:00,
2013-02-26 05:20:00,27.7,23.2,30.27,ESE,113,0.0,0.4,83,2.59,,,0.49,WUHU216HW,2013-02-26 10:20:00,
2013-02-26 05:30:00,27.7,23.2,30.27,ENE,68,0.0,0.9,83,2.59,,,0.49,WUHU216HW,2013-02-26 10:30:00,
2013-02-26 05:40:00,27.5,23.1,30.26,ENE,68,0.0,0.4,83,2.59,,,0.49,WUHU216HW,2013-02-26 10:40:00,
2013-02-26 05:50:00,27.7,23.2,30.26,SE,135,0.4,0.4,83,2.59,,,0.49,WUHU216HW,2013-02-26 10:50:00,
2013-02-26 06:00:00,27.7,23.2,30.25,East,90,0.0,0.9,83,2.59,,,0.61,WUHU216HW,2013-02-26 11:00:00,
2013-02-26 06:10:00,27.7,23.2,30.26,East,90,0.0,0.4,83,2.59,,,0.63,WUHU216HW,2013-02-26 11:10:00,
2013-02-26 06:20:00,27.7,23.5,30.26,East,90,0.0,0.2,84,2.59,,,0.63,WUHU216HW,2013-02-26 11:20:00,
2013-02-26 06:30:00,27.7,23.5,30.27,East,90,0.0,0.0,84,2.59,,,0.63,WUHU216HW,2013-02-26 11:30:00,
2013-02-26 06:40:00,27.5,23.3,30.26,NE,45,0.0,0.4,84,2.59,,,0.63,WUHU216HW,2013-02-26 11:40:00,
2013-02-26 06:50:00,27.4,23.1,30.26,East,90,0.0,0.0,84,2.59,,,0.63,WUHU216HW,2013-02-26 11:50:00,
2013-02-26 07:00:00,27.4,22.9,30.27,ESE,113,0.0,0.4,83,2.59,,,0.75,WUHU216HW,2013-02-26 12:00:00,
2013-02-26 07:10:00,27.7,23.5,30.27,ESE,113,0.0,0.0,84,2.59,,,0.76,WUHU216HW,2013-02-26 12:10:00,
2013-02-26 07:20:00,28.1,23.9,30.27,ESE,113,0.0,0.0,84,2.59,,,0.76,WUHU216HW,2013-02-26 12:20:00,
2013-02-26 07:30:00,28.8,24.8,30.28,ENE,68,0.0,0.4,85,2.59,,,0.76,WUHU216HW,2013-02-26 12:30:00,
2013-02-26 07:40:00,29.7,26.0,30.29,NNE,23,0.0,1.1,86,2.59,,,0.76,WUHU216HW,2013-02-26 12:40:00,
2013-02-26 07:50:00,30.6,26.9,30.30,SSW,203,0.4,1.1,86,2.59,,,0.76,WUHU216HW,2013-02-26 12:50:00,
2013-02-26 08:00:00,32.2,28.3,30.30,South,180,0.4,1.1,85,2.59,,,0.82,WUHU216HW,2013-02-26 13:00:00,
2013-02-26 08:10:00,33.5,29.1,30.30,ENE,68,0.0,1.8,84,2.59,,,0.83,WUHU216HW,2013-02-26 13:10:00,
2013-02-26 08:20:00,34.4,30.0,30.30,ESE,113,0.7,1.1,84,2.59,,,0.83,WUHU216HW,2013-02-26 13:20:00,
2013-02-26 08:30:00,35.3,30.9,30.31,SE,135,1.3,2.5,84,2.59,,,0.83,WUHU216HW,2013-02-26 13:30:00,
2013-02-26 08:40:00,35.8,30.8,30.30,NE,45,1.3,3.1,82,2.59,,,0.83,WUHU216HW,2013-02-26 13:40:00,
2013-02-26 08:50:00,36.0,31.0,30.30,NE,45,2.2,3.8,82,2.59,,,0.83,WUHU216HW,2013-02-26 13:50:00,
2013-02-26 09:00:00,36.4,31.3,30.30,SE,135,0.4,2.5,82,2.59,,,0.90,WUHU216HW,2013-02-26 14:00:00,
2013-02-26 09:10:00,37.1,32.0,30.30,SSE,158,1.1,3.1,82,2.59,,,0.90,WUHU216HW,2013-02-26 14:10:00,
2013-02-26 09:20:00,37.8,32.5,30.30,SE,135,3.4,3.4,81,2.59,,,0.90,WUHU216HW,2013-02-26 14:20:00,
2013-02-26 09:30:00,38.2,32.6,30.30,NE,45,2.2,3.4,80,2.59,,,0.90,WUHU216HW,2013-02-26 14:30:00,
2013-02-26 09:40:00,38.5,32.9,30.29,SSE,158,2.2,4.0,80,2.59,,,0.90,WUHU216HW,2013-02-26 14:40:00,
2013-02-26 09:50:00,38.7,33.1,30.29,South,180,1.1,3.4,80,2.59,,,0.90,WUHU216HW,2013-02-26 14:50:00,
2013-02-26 10:00:00,39.2,33.3,30.29,NE,45,1.3,3.1,79,2.59,,,0.90,WUHU216HW,2013-02-26 15:00:00,
2013-02-26 10:10:00,40.0,33.9,30.30,North,0,2.0,2.9,79,2.59,,,0.97,WUHU216HW,2013-02-26 15:10:00,
2013-02-26 10:20:00,40.5,34.5,30.29,SE,135,1.1,2.0,79,2.59,,,0.97,WUHU216HW,2013-02-26 15:20:00,
2013-02-26 10:30:00,41.4,35.0,30.29,SSE,158,1.3,3.1,78,2.59,,,0.97,WUHU216HW,2013-02-26 15:30:00,
2013-02-26 10:40:00,41.6,34.8,30.30,ENE,68,2.2,4.5,77,2.59,,,0.97,WUHU216HW,2013-02-26 15:40:00,
2013-02-26 10:50:00,41.6,34.8,30.29,SSW,203,0.9,4.0,77,2.59,,,0.97,WUHU216HW,2013-02-26 15:50:00,
2013-02-26 11:00:00,42.1,34.7,30.29,SSE,158,1.8,4.9,75,2.59,,,1.04,WUHU216HW,2013-02-26 16:00:00,
2013-02-26 11:10:00,42.7,34.9,30.29,SSW,203,2.5,4.3,74,2.59,,,1.04,WUHU216HW,2013-02-26 16:10:00,
2013-02-26 11:20:00,42.7,34.9,30.29,SSE,158,0.7,4.3,74,2.59,,,1.04,WUHU216HW,2013-02-26 16:20:00,
2013-02-26 11:30:00,43.0,34.7,30.28,SE,135,2.2,6.3,72,2.59,,,1.04,WUHU216HW,2013-02-26 16:30:00,
2013-02-26 11:40:00,43.0,35.0,30.28,ESE,113,1.8,3.1,73,2.59,,,1.04,WUHU216HW,2013-02-26 16:40:00,
2013-02-26 11:50:00,43.2,34.8,30.28,ESE,113,1.1,4.0,72,2.59,,,1.04,WUHU216HW,2013-02-26 16:50:00,
2013-02-26 12:00:00,43.4,34.7,30.27,ESE,113,3.4,3.4,71,2.59,,,1.11,WUHU216HW,2013-02-26 17:00:00,
2013-02-26 12:10:00,43.6,34.5,30.27,South,180,3.4,5.6,70,2.59,,,1.11,WUHU216HW,2013-02-26 17:10:00,
2013-02-26 12:20:00,43.9,34.0,30.27,SSW,203,3.4,6.7,68,2.59,,,1.11,WUHU216HW,2013-02-26 17:20:00,
2013-02-26 12:30:00,44.1,34.2,30.26,South,180,1.8,6.3,68,2.59,,,1.11,WUHU216HW,2013-02-26 17:30:00,
2013-02-26 12:40:00,44.3,34.4,30.26,ESE,113,0.9,6.0,68,2.59,,,1.11,WUHU216HW,2013-02-26 17:40:00,
2013-02-26 12:50:00,44.3,34.4,30.25,West,270,1.3,5.1,68,2.59,,,1.11,WUHU216HW,2013-02-26 17:50:00,
2013-02-26 13:00:00,43.7,33.5,30.24,North,0,3.8,4.0,67,2.59,,,1.18,WUHU216HW,2013-02-26 18:00:00,
2013-02-26 13:10:00,43.6,33.8,30.24,SSE,158,0.9,6.3,68,2.59,,,1.18,WUHU216HW,2013-02-26 18:10:00,
2013-02-26 13:20:00,43.7,33.5,30.23,ESE,113,2.9,5.6,67,2.59,,,1.18,WUHU216HW,2013-02-26 18:20:00,
2013-02-26 13:30:00,44.3,33.2,30.23,ESE,113,6.0,6.0,65,2.59,,,1.18,WUHU216HW,2013-02-26 18:30:00,
2013-02-26 13:40:00,44.3,33.6,30.22,SE,135,3.4,7.6,66,2.59,,,1.18,WUHU216HW,2013-02-26 18:40:00,
2013-02-26 13:50:00,43.7,33.1,30.22,SE,135,1.6,7.6,66,2.59,,,1.18,WUHU216HW,2013-02-26 18:50:00,
2013-02-26 14:00:00,43.4,33.1,30.23,SSE,158,2.2,5.4,67,2.59,,,1.26,WUHU216HW,2013-02-26 19:00:00,
2013-02-26 14:10:00,43.0,32.9,30.23,South,180,4.0,4.0,67,2.59,,,1.26,WUHU216HW,2013-02-26 19:10:00,
2013-02-26 14:20:00,42.7,32.9,30.23,SSW,203,2.5,6.7,68,2.59,,,1.26,WUHU216HW,2013-02-26 19:20:00,
2013-02-26 14:30:00,42.8,32.7,30.22,WSW,248,2.5,9.6,67,2.59,,,1.26,WUHU216HW,2013-02-26 19:30:00,
2013-02-26 14:40:00,42.8,32.7,30.21,SSE,158,3.4,4.7,67,2.59,,,1.26,WUHU216HW,2013-02-26 19:40:00,
2013-02-26 14:50:00,42.5,32.7,30.21,SE,135,3.8,4.9,68,2.59,,,1.26,WUHU216HW,2013-02-26 19:50:00,
2013-02-26 15:00:00,42.3,32.5,30.20,SSE,158,1.1,5.8,68,2.59,,,1.32,WUHU216HW,2013-02-26 20:00:00,
2013-02-26 15:10:00,42.5,32.7,30.19,SE,135,3.6,4.3,68,2.59,,,1.33,WUHU216HW,2013-02-26 20:10:00,
2013-02-26 15:21:00,42.1,32.3,30.19,East,90,7.6,7.6,68,2.59,,,1.33,WUHU216HW,2013-02-26 20:21:00,
2013-02-26 15:31:00,41.8,31.6,30.19,ESE,113,1.6,7.6,67,2.59,,,1.33,WUHU216HW,2013-02-26 20:31:00,
2013-02-26 15:41:00,41.6,31.4,30.19,SSE,158,1.1,6.9,67,2.59,,,1.33,WUHU216HW,2013-02-26 20:41:00,
2013-02-26 15:51:00,41.4,31.2,30.19,SSW,203,3.8,7.2,67,2.59,,,1.33,WUHU216HW,2013-02-26 20:51:00,
2013-02-26 16:01:00,41.0,31.3,30.19,SE,135,5.4,5.4,68,2.59,,,1.40,WUHU216HW,2013-02-26 21:01:00,
2013-02-26 16:11:00,40.7,31.3,30.18,NE,45,1.8,5.6,69,2.59,,,1.40,WUHU216HW,2013-02-26 21:11:00,
2013-02-26 16:21:00,40.7,31.7,30.18,SE,135,2.5,4.3,70,2.59,,,1.40,WUHU216HW,2013-02-26 21:21:00,
2013-02-26 16:31:00,40.3,31.7,30.17,NNE,23,3.1,5.4,71,2.59,,,1.40,WUHU216HW,2013-02-26 21:31:00,
2013-02-26 16:36:00,40.1,31.5,30.17,SW,225,1.6,4.7,71,0.07,,,1.40,WUHU216HW,2013-02-26 21:36:00,
2013-02-26 16:41:00,40.0,31.3,30.17,ENE,68,1.3,4.7,71,2.59,,,1.40,WUHU216HW,2013-02-26 21:41:00,
2013-02-26 16:46:00,40.0,31.3,30.16,East,90,3.8,5.6,71,0.07,,,1.40,WUHU216HW,2013-02-26 21:46:00,
2013-02-26 16:51:00,39.8,31.2,30.16,SE,135,6.9,6.9,71,0.07,,,1.40,WUHU216HW,2013-02-26 21:51:00,
2013-02-26 16:56:00,39.6,31.0,30.16,NE,45,1.1,6.9,71,0.07,,,1.40,WUHU216HW,2013-02-26 21:56:00,
2013-02-26 17:06:00,39.4,30.8,30.15,WSW,248,0.4,7.2,71,0.07,,,1.47,WUHU216HW,2013-02-26 22:06:00,
2013-02-26 17:16:00,39.2,30.6,30.14,NNE,23,0.4,4.7,71,0.07,,,1.47,WUHU216HW,2013-02-26 22:16:00,
2013-02-26 17:26:00,39.1,30.4,30.14,East,90,1.6,4.9,71,0.07,,,1.47,WUHU216HW,2013-02-26 22:26:00,
2013-02-26 17:36:00,39.1,30.8,30.14,ESE,113,0.4,5.8,72,0.07,,,1.47,WUHU216HW,2013-02-26 22:36:00,
2013-02-26 17:46:00,38.9,31.0,30.15,South,180,1.1,4.0,73,0.07,,,1.47,WUHU216HW,2013-02-26 22:46:00,
2013-02-26 17:56:00,38.9,31.0,30.14,NNW,338,1.8,3.4,73,0.07,,,1.47,WUHU216HW,2013-02-26 22:56:00,
2013-02-26 18:06:00,38.7,31.2,30.14,South,180,1.1,3.1,74,0.07,,,1.54,WUHU216HW,2013-02-26 23:06:00,
2013-02-26 18:16:00,38.5,31.0,30.13,SSE,158,2.7,6.3,74,0.07,,,1.54,WUHU216HW,2013-02-26 23:16:00,
2013-02-26 18:26:00,38.5,31.2,30.13,SSW,203,0.9,4.5,75,0.07,,,1.54,WUHU216HW,2013-02-26 23:26:00,
2013-02-26 18:37:00,38.5,31.2,30.13,ENE,68,3.4,5.8,75,0.07,,,1.54,WUHU216HW,2013-02-26 23:37:00,
2013-02-26 18:47:00,38.5,31.0,30.12,NNW,338,0.4,6.3,74,0.07,,,1.54,WUHU216HW,2013-02-26 23:47:00,
2013-02-26 18:57:00,38.3,30.8,30.12,ESE,113,1.1,4.5,74,0.07,,,1.54,WUHU216HW,2013-02-26 23:57:00,
2013-02-26 19:07:00,38.3,30.8,30.11,NNE,23,2.9,7.2,74,0.13,,,1.67,WUHU216HW,2013-02-27 00:07:00,
2013-02-26 19:17:00,38.0,30.4,30.11,SW,225,1.8,7.2,74,0.13,,,1.67,WUHU216HW,2013-02-27 00:17:00,
2013-02-26 19:27:00,37.8,31.2,30.10,South,180,3.4,4.0,77,0.13,,,1.67,WUHU216HW,2013-02-27 00:27:00,
2013-02-26 19:37:00,37.4,30.6,30.10,NNE,23,0.4,7.4,76,0.13,,,1.67,WUHU216HW,2013-02-27 00:37:00,
2013-02-26 19:47:00,37.1,30.5,30.08,ESE,113,1.6,4.7,77,0.13,,,1.67,WUHU216HW,2013-02-27 00:47:00,
2013-02-26 19:57:00,37.1,30.9,30.08,SE,135,4.7,6.9,78,0.13,,,1.67,WUHU216HW,2013-02-27 00:57:00,
2013-02-26 20:07:00,36.9,30.7,30.07,SE,135,2.2,8.3,78,0.13,,,1.80,WUHU216HW,2013-02-27 01:07:00,
2013-02-26 20:17:00,36.9,30.7,30.06,SSE,158,2.0,8.9,78,0.14,,,1.81,WUHU216HW,2013-02-27 01:17:00,
2013-02-26 20:27:00,36.7,30.5,30.06,North,0,2.9,5.6,78,0.14,,,1.81,WUHU216HW,2013-02-27 01:27:00,
2013-02-26 20:37:00,36.7,30.2,30.04,SSE,158,2.9,6.0,77,0.14,,,1.81,WUHU216HW,2013-02-27 01:37:00,
2013-02-26 20:47:00,36.7,30.2,30.04,NE,45,5.6,7.6,77,0.14,,,1.81,WUHU216HW,2013-02-27 01:47:00,
2013-02-26 20:57:00,36.7,30.2,30.02,East,90,3.1,8.7,77,0.14,,,1.81,WUHU216HW,2013-02-27 01:57:00,
2013-02-26 21:08:00,36.5,30.0,30.02,NE,45,4.7,6.9,77,0.01,,,1.81,WUHU216HW,2013-02-27 02:08:00,
2013-02-26 21:18:00,36.4,30.4,30.02,North,0,4.0,9.8,79,0.00,,,1.81,WUHU216HW,2013-02-27 02:18:00,
2013-02-26 21:28:00,36.0,30.7,30.02,WSW,248,0.9,6.5,81,0.00,,,1.81,WUHU216HW,2013-02-27 02:28:00,
2013-02-26 21:38:00,35.6,30.6,30.03,North,0,3.6,4.3,82,0.00,,,1.81,WUHU216HW,2013-02-27 02:38:00,
2013-02-26 21:48:00,35.5,31.1,30.02,NE,45,3.1,6.7,84,0.00,,,1.81,WUHU216HW,2013-02-27 02:48:00,
2013-02-26 21:58:00,35.1,30.7,30.02,North,0,3.6,4.5,84,0.00,,,1.81,WUHU216HW,2013-02-27 02:58:00,
2013-02-26 22:08:00,34.9,30.5,30.01,ENE,68,1.8,5.1,84,0.01,,,1.82,WUHU216HW,2013-02-27 03:08:00,
2013-02-26 22:18:00,34.7,30.9,30.00,East,90,3.4,5.1,86,0.03,,,1.84,WUHU216HW,2013-02-27 03:18:00,
2013-02-26 22:28:00,34.6,31.0,29.98,SE,135,4.3,7.4,87,0.05,,,1.86,WUHU216HW,2013-02-27 03:28:00,
2013-02-26 22:38:00,34.6,31.3,29.97,West,270,1.8,6.0,88,0.05,,,1.86,WUHU216HW,2013-02-27 03:38:00,
2013-02-26 22:48:00,34.4,31.4,29.96,SSE,158,4.3,6.9,89,0.05,,,1.86,WUHU216HW,2013-02-27 03:48:00,
2013-02-26 22:58:00,34.6,31.9,29.93,ENE,68,3.4,8.3,90,0.05,,,1.86,WUHU216HW,2013-02-27 03:58:00,
2013-02-26 23:08:00,34.6,31.9,29.91,SE,135,4.0,6.7,90,0.11,,,1.93,WUHU216HW,2013-02-27 04:08:00,
2013-02-26 23:18:00,34.6,31.9,29.91,NNW,338,1.6,7.8,90,0.09,,,1.93,WUHU216HW,2013-02-27 04:18:00,
2013-02-26 23:28:00,34.6,32.1,29.90,ESE,113,4.0,8.1,91,0.07,,,1.93,WUHU216HW,2013-02-27 04:28:00,
2013-02-26 23:38:00,34.6,32.1,29.91,NNW,338,4.7,6.5,91,0.07,,,1.93,WUHU216HW,2013-02-27 04:38:00,
2013-02-26 23:49:00,34.6,32.1,29.91,NNE,23,5.4,6.7,91,0.09,,,1.95,WUHU216HW,2013-02-27 04:49:00,
2013-02-26 23:59:00,34.7,32.6,29.90,NNW,338,5.6,8.3,92,0.12,,,1.98,WUHU216HW,2013-02-27 04:59:00,